Time,TemperatureF,DewpointF,PressureIn,WindDirection,WindDirectionDegrees,WindSpeedMPH,WindSpeedGustMPH,Humidity,HourlyPrecipIn,Conditions,Clouds,dailyrainin,SoftwareType,DateUTC
2013-02-11 00:03:00,38.1,34.3,30.10,West,276,0.0,1.9,86,0.00,,CLR,0.00,VWS V14.01,2013-02-11 08:03:00,
2013-02-11 00:08:00,37.9,34.1,30.10,West,276,0.0,1.9,86,0.00,,CLR,0.00,VWS V14.01,2013-02-11 08:08:00,
2013-02-11 00:13:00,37.8,34.3,30.10,West,266,0.0,1.9,87,0.00,,CLR,0.00,VWS V14.01,2013-02-11 08:13:00,
2013-02-11 00:18:00,37.9,34.1,30.11,West,266,0.0,1.9,86,0.00,,CLR,0.00,VWS V14.01,2013-02-11 08:18:00,
2013-02-11 00:23:00,37.8,34.0,30.11,SE,124,0.0,1.9,86,0.00,,CLR,0.00,VWS V14.01,2013-02-11 08:23:00,
2013-02-11 00:28:00,37.6,33.8,30.11,East,96,1.9,3.8,86,0.00,,CLR,0.00,VWS V14.01,2013-02-11 08:28:00,
2013-02-11 00:33:00,37.6,34.1,30.11,ESE,110,0.0,3.8,87,0.00,,CLR,0.00,VWS V14.01,2013-02-11 08:33:00,
2013-02-11 00:38:00,37.6,34.1,30.11,ESE,110,5.7,5.7,87,0.00,,CLR,0.00,VWS V14.01,2013-02-11 08:38:00,
2013-02-11 00:43:00,37.7,33.9,30.10,SE,129,5.7,9.5,86,0.00,,CLR,0.00,VWS V14.01,2013-02-11 08:43:00,
2013-02-11 00:48:00,37.6,33.8,30.10,East,82,3.8,9.5,86,0.00,,CLR,0.00,VWS V14.01,2013-02-11 08:48:00,
2013-02-11 00:53:00,37.6,33.8,30.10,ENE,61,1.9,9.5,86,0.00,,CLR,0.00,VWS V14.01,2013-02-11 08:53:00,
2013-02-11 00:58:00,37.8,34.3,30.10,NE,51,1.9,9.5,87,0.00,,CLR,0.00,VWS V14.01,2013-02-11 08:58:00,
2013-02-11 01:03:00,37.8,34.3,30.10,SE,126,1.9,1.9,87,0.00,,CLR,0.00,VWS V14.01,2013-02-11 09:03:00,
2013-02-11 01:08:00,37.8,34.3,30.10,ESE,117,1.9,5.7,87,0.00,,CLR,0.00,VWS V14.01,2013-02-11 09:08:00,
2013-02-11 01:13:00,37.8,34.3,30.10,SE,131,1.9,5.7,87,0.00,,CLR,0.00,VWS V14.01,2013-02-11 09:13:00,
2013-02-11 01:18:00,37.7,34.2,30.10,ESE,120,1.9,5.7,87,0.00,,CLR,0.00,VWS V14.01,2013-02-11 09:18:00,
2013-02-11 01:23:00,37.9,34.4,30.10,ESE,102,3.8,5.7,87,0.00,,CLR,0.00,VWS V14.01,2013-02-11 09:23:00,
2013-02-11 01:29:00,38.0,34.2,30.10,ESE,104,0.0,5.7,86,0.00,,CLR,0.00,VWS V14.01,2013-02-11 09:29:00,
2013-02-11 01:34:00,38.0,34.2,30.10,ESE,113,1.9,3.8,86,0.00,,CLR,0.00,VWS V14.01,2013-02-11 09:34:00,
2013-02-11 01:39:00,37.9,33.8,30.10,East,89,1.9,5.7,85,0.00,,CLR,0.00,VWS V14.01,2013-02-11 09:39:00,
2013-02-11 01:44:00,37.6,33.5,30.10,ESE,118,1.9,5.7,85,0.00,,CLR,0.00,VWS V14.01,2013-02-11 09:44:00,
2013-02-11 01:49:00,37.5,33.4,30.10,ESE,118,0.0,5.7,85,0.00,,CLR,0.00,VWS V14.01,2013-02-11 09:49:00,
2013-02-11 01:54:00,37.5,33.4,30.10,ESE,121,0.0,5.7,85,0.00,,CLR,0.00,VWS V14.01,2013-02-11 09:54:00,
2013-02-11 01:59:00,37.3,33.2,30.10,ESE,110,0.0,5.7,85,0.00,,CLR,0.00,VWS V14.01,2013-02-11 09:59:00,
2013-02-11 02:04:00,37.1,33.0,30.10,SSE,148,3.8,5.7,85,0.00,,CLR,0.00,VWS V14.01,2013-02-11 10:04:00,
2013-02-11 02:09:00,36.8,32.7,30.11,West,281,1.9,5.7,85,0.00,,CLR,0.00,VWS V14.01,2013-02-11 10:09:00,
2013-02-11 02:14:00,36.5,32.7,30.11,West,276,0.0,5.7,86,0.00,,CLR,0.00,VWS V14.01,2013-02-11 10:14:00,
2013-02-11 02:19:00,36.2,32.4,30.11,West,276,0.0,5.7,86,0.00,,CLR,0.00,VWS V14.01,2013-02-11 10:19:00,
2013-02-11 02:25:00,35.8,32.3,30.11,West,277,0.0,0.0,87,0.00,,CLR,0.00,VWS V14.01,2013-02-11 10:25:00,
2013-02-11 02:30:00,35.4,32.2,30.11,West,277,0.0,0.0,88,0.00,,CLR,0.00,VWS V14.01,2013-02-11 10:30:00,
2013-02-11 02:35:00,35.3,32.1,30.11,West,279,1.9,1.9,88,0.00,,CLR,0.00,VWS V14.01,2013-02-11 10:35:00,
2013-02-11 02:41:00,35.1,31.9,30.11,SE,134,0.0,1.9,88,0.00,,CLR,0.00,VWS V14.01,2013-02-11 10:41:00,
2013-02-11 02:46:00,35.1,31.9,30.11,SE,134,0.0,1.9,88,0.00,,CLR,0.00,VWS V14.01,2013-02-11 10:46:00,
2013-02-11 02:51:00,34.9,32.0,30.12,SE,134,0.0,1.9,89,0.00,,CLR,0.00,VWS V14.01,2013-02-11 10:51:00,
2013-02-11 02:56:00,34.9,32.0,30.11,SE,134,0.0,1.9,89,0.00,,CLR,0.00,VWS V14.01,2013-02-11 10:56:00,
2013-02-11 03:01:00,34.8,31.9,30.12,East,81,1.9,1.9,89,0.00,,CLR,0.00,VWS V14.01,2013-02-11 11:01:00,
2013-02-11 03:06:00,34.9,32.0,30.12,ESE,122,0.0,3.8,89,0.00,,CLR,0.00,VWS V14.01,2013-02-11 11:06:00,
2013-02-11 03:11:00,34.9,31.7,30.11,ESE,107,0.0,3.8,88,0.00,,CLR,0.00,VWS V14.01,2013-02-11 11:11:00,
2013-02-11 03:16:00,34.8,31.6,30.11,ESE,109,1.9,3.8,88,0.00,,CLR,0.00,VWS V14.01,2013-02-11 11:16:00,
2013-02-11 03:21:00,34.8,31.6,30.11,ESE,119,1.9,3.8,88,0.00,,CLR,0.00,VWS V14.01,2013-02-11 11:21:00,
2013-02-11 03:26:00,34.7,31.5,30.11,West,262,1.9,3.8,88,0.00,,CLR,0.00,VWS V14.01,2013-02-11 11:26:00,
2013-02-11 03:31:00,34.6,31.4,30.12,East,79,1.9,1.9,88,0.00,,CLR,0.00,VWS V14.01,2013-02-11 11:31:00,
2013-02-11 03:36:00,34.5,31.3,30.11,East,94,0.0,1.9,88,0.00,,CLR,0.00,VWS V14.01,2013-02-11 11:36:00,
2013-02-11 03:41:00,34.4,31.2,30.11,East,94,0.0,1.9,88,0.00,,CLR,0.00,VWS V14.01,2013-02-11 11:41:00,
2013-02-11 03:46:00,34.5,31.3,30.11,East,94,0.0,1.9,88,0.00,,CLR,0.00,VWS V14.01,2013-02-11 11:46:00,
2013-02-11 03:51:00,34.6,31.4,30.11,SSE,153,0.0,3.8,88,0.00,,CLR,0.00,VWS V14.01,2013-02-11 11:51:00,
2013-02-11 03:56:00,34.5,31.0,30.11,SSE,152,0.0,3.8,87,0.00,,CLR,0.00,VWS V14.01,2013-02-11 11:56:00,
2013-02-11 04:01:00,34.4,31.2,30.12,East,91,3.8,3.8,88,0.00,,CLR,0.00,VWS V14.01,2013-02-11 12:01:00,
2013-02-11 04:06:00,34.5,31.3,30.12,SE,127,0.0,3.8,88,0.00,,CLR,0.00,VWS V14.01,2013-02-11 12:06:00,
2013-02-11 04:11:00,34.7,31.5,30.12,ENE,71,0.0,3.8,88,0.00,,CLR,0.00,VWS V14.01,2013-02-11 12:11:00,
2013-02-11 04:16:00,34.7,31.5,30.12,ENE,76,0.0,3.8,88,0.00,,CLR,0.00,VWS V14.01,2013-02-11 12:16:00,
2013-02-11 04:22:00,34.5,31.3,30.12,SE,125,1.9,3.8,88,0.00,,CLR,0.00,VWS V14.01,2013-02-11 12:22:00,
2013-02-11 04:27:00,34.4,31.2,30.12,SE,125,0.0,3.8,88,0.00,,CLR,0.00,VWS V14.01,2013-02-11 12:27:00,
2013-02-11 04:32:00,34.3,31.1,30.13,ESE,123,1.9,5.7,88,0.00,,CLR,0.00,VWS V14.01,2013-02-11 12:32:00,
2013-02-11 04:37:00,34.3,31.1,30.13,ESE,117,3.8,5.7,88,0.00,,CLR,0.00,VWS V14.01,2013-02-11 12:37:00,
2013-02-11 04:42:00,34.3,30.8,30.13,ESE,110,0.0,7.6,87,0.00,,CLR,0.00,VWS V14.01,2013-02-11 12:42:00,
2013-02-11 04:47:00,34.2,30.5,30.13,SE,130,1.9,7.6,86,0.00,,CLR,0.00,VWS V14.01,2013-02-11 12:47:00,
2013-02-11 04:52:00,34.2,30.7,30.13,ESE,111,5.7,7.6,87,0.00,,CLR,0.00,VWS V14.01,2013-02-11 12:52:00,
2013-02-11 04:57:00,34.6,30.9,30.13,SE,131,3.8,7.6,86,0.00,,CLR,0.00,VWS V14.01,2013-02-11 12:57:00,
2013-02-11 05:02:00,34.9,31.1,30.13,ESE,111,0.0,9.5,86,0.00,,CLR,0.00,VWS V14.01,2013-02-11 13:02:00,
2013-02-11 05:07:00,35.0,31.0,30.13,East,86,1.9,9.5,85,0.00,,CLR,0.00,VWS V14.01,2013-02-11 13:07:00,
2013-02-11 05:12:00,35.1,30.8,30.14,ESE,117,0.0,9.5,84,0.00,,CLR,0.00,VWS V14.01,2013-02-11 13:12:00,
2013-02-11 05:17:00,34.8,30.8,30.14,ESE,117,0.0,9.5,85,0.00,,CLR,0.00,VWS V14.01,2013-02-11 13:17:00,
2013-02-11 05:22:00,34.5,30.5,30.14,ESE,117,0.0,9.5,85,0.00,,CLR,0.00,VWS V14.01,2013-02-11 13:22:00,
2013-02-11 05:27:00,34.4,30.4,30.14,ESE,117,0.0,9.5,85,0.00,,CLR,0.00,VWS V14.01,2013-02-11 13:27:00,
2013-02-11 05:32:00,34.1,30.1,30.14,ESE,117,1.9,1.9,85,0.00,,CLR,0.00,VWS V14.01,2013-02-11 13:32:00,
2013-02-11 05:38:00,34.1,30.4,30.14,ESE,118,1.9,3.8,86,0.00,,CLR,0.00,VWS V14.01,2013-02-11 13:38:00,
2013-02-11 05:43:00,34.3,30.3,30.14,SE,129,5.7,5.7,85,0.00,,CLR,0.00,VWS V14.01,2013-02-11 13:43:00,
2013-02-11 05:48:00,34.7,30.4,30.14,SSE,147,0.0,5.7,84,0.00,,CLR,0.00,VWS V14.01,2013-02-11 13:48:00,
2013-02-11 05:53:00,34.8,30.5,30.14,East,90,3.8,5.7,84,0.00,,CLR,0.00,VWS V14.01,2013-02-11 13:53:00,
2013-02-11 05:58:00,34.8,30.5,30.14,SSE,148,1.9,5.7,84,0.00,,CLR,0.00,VWS V14.01,2013-02-11 13:58:00,
2013-02-11 06:03:00,35.1,30.5,30.15,ESE,106,5.7,9.5,83,0.00,,CLR,0.00,VWS V14.01,2013-02-11 14:03:00,
2013-02-11 06:08:00,35.5,30.9,30.15,SE,127,1.9,9.5,83,0.00,,CLR,0.00,VWS V14.01,2013-02-11 14:08:00,
2013-02-11 06:13:00,35.5,30.9,30.14,ESE,116,3.8,9.5,83,0.00,,CLR,0.00,VWS V14.01,2013-02-11 14:13:00,
2013-02-11 06:18:00,35.5,30.6,30.14,ESE,111,0.0,9.5,82,0.00,,CLR,0.00,VWS V14.01,2013-02-11 14:18:00,
2013-02-11 06:23:00,35.7,30.8,30.14,SSE,155,3.8,13.3,82,0.00,,CLR,0.00,VWS V14.01,2013-02-11 14:23:00,
2013-02-11 06:28:00,35.7,30.8,30.14,ESE,113,0.0,13.3,82,0.00,,CLR,0.00,VWS V14.01,2013-02-11 14:28:00,
2013-02-11 06:33:00,35.7,30.8,30.14,SE,134,1.9,5.7,82,0.00,,CLR,0.00,VWS V14.01,2013-02-11 14:33:00,
2013-02-11 06:38:00,35.6,30.7,30.14,ESE,109,3.8,7.6,82,0.00,,CLR,0.00,VWS V14.01,2013-02-11 14:38:00,
2013-02-11 06:43:00,35.6,30.7,30.14,SE,132,1.9,7.6,82,0.00,,CLR,0.00,VWS V14.01,2013-02-11 14:43:00,
2013-02-11 06:48:00,35.6,30.7,30.15,ESE,113,0.0,7.6,82,0.00,,CLR,0.00,VWS V14.01,2013-02-11 14:48:00,
2013-02-11 06:53:00,35.5,30.6,30.15,ESE,121,3.8,7.6,82,0.00,,CLR,0.00,VWS V14.01,2013-02-11 14:53:00,
2013-02-11 06:58:00,35.2,30.3,30.15,ESE,118,3.8,7.6,82,0.00,,CLR,0.00,VWS V14.01,2013-02-11 14:58:00,
2013-02-11 07:03:00,34.9,30.3,30.15,SE,131,0.0,0.0,83,0.00,,CLR,0.00,VWS V14.01,2013-02-11 15:03:00,
2013-02-11 07:08:00,34.7,30.1,30.15,SW,217,3.8,3.8,83,0.00,,CLR,0.00,VWS V14.01,2013-02-11 15:08:00,
2013-02-11 07:13:00,34.7,30.1,30.15,West,281,0.0,3.8,83,0.00,,CLR,0.00,VWS V14.01,2013-02-11 15:13:00,
2013-02-11 07:19:00,34.7,30.1,30.16,ESE,117,1.9,3.8,83,0.00,,CLR,0.00,VWS V14.01,2013-02-11 15:19:00,
2013-02-11 07:24:00,35.2,30.3,30.16,ESE,119,0.0,3.8,82,0.00,,CLR,0.00,VWS V14.01,2013-02-11 15:24:00,
2013-02-11 07:29:00,36.0,30.8,30.16,NNW,344,1.9,3.8,81,0.00,,CLR,0.00,VWS V14.01,2013-02-11 15:29:00,
2013-02-11 07:34:00,36.8,31.2,30.16,ESE,120,0.0,3.8,80,0.00,,CLR,0.00,VWS V14.01,2013-02-11 15:34:00,
2013-02-11 07:39:00,37.5,31.6,30.16,East,80,1.9,9.5,79,0.00,,CLR,0.00,VWS V14.01,2013-02-11 15:39:00,
2013-02-11 07:44:00,40.6,32.0,30.16,NE,34,3.8,9.5,71,0.00,,CLR,0.00,VWS V14.01,2013-02-11 15:44:00,
2013-02-11 07:49:00,41.9,32.8,30.16,WNW,283,0.0,9.5,70,0.00,,CLR,0.00,VWS V14.01,2013-02-11 15:49:00,
2013-02-11 07:54:00,41.3,32.6,30.16,WNW,284,0.0,9.5,71,0.00,,CLR,0.00,VWS V14.01,2013-02-11 15:54:00,
2013-02-11 07:59:00,41.1,33.1,30.17,ENE,63,0.0,9.5,73,0.00,,CLR,0.00,VWS V14.01,2013-02-11 15:59:00,
2013-02-11 08:04:00,41.7,33.0,30.17,WNW,288,0.0,1.9,71,0.00,,CLR,0.00,VWS V14.01,2013-02-11 16:04:00,
2013-02-11 08:09:00,42.7,34.0,30.17,WNW,297,0.0,1.9,71,0.00,,CLR,0.00,VWS V14.01,2013-02-11 16:09:00,
2013-02-11 08:14:00,43.8,33.9,30.17,West,274,0.0,3.8,68,0.00,,CLR,0.00,VWS V14.01,2013-02-11 16:14:00,
2013-02-11 08:19:00,45.2,34.2,30.18,West,274,0.0,3.8,65,0.00,,CLR,0.00,VWS V14.01,2013-02-11 16:19:00,
2013-02-11 08:24:00,46.5,33.8,30.18,West,274,0.0,3.8,61,0.00,,CLR,0.00,VWS V14.01,2013-02-11 16:24:00,
2013-02-11 08:29:00,47.6,34.4,30.18,WSW,254,0.0,3.8,60,0.00,,CLR,0.00,VWS V14.01,2013-02-11 16:29:00,
2013-02-11 08:34:00,48.2,34.1,30.18,West,271,0.0,3.8,58,0.00,,CLR,0.00,VWS V14.01,2013-02-11 16:34:00,
2013-02-11 08:39:00,48.9,33.9,30.18,West,263,0.0,3.8,56,0.00,,CLR,0.00,VWS V14.01,2013-02-11 16:39:00,
2013-02-11 08:44:00,50.0,35.4,30.19,West,263,0.0,3.8,57,0.00,,CLR,0.00,VWS V14.01,2013-02-11 16:44:00,
2013-02-11 08:49:00,50.9,34.9,30.18,East,79,0.0,3.8,54,0.00,,CLR,0.00,VWS V14.01,2013-02-11 16:49:00,
2013-02-11 08:55:00,52.2,33.1,30.18,North,6,5.7,9.5,48,0.00,,CLR,0.00,VWS V14.01,2013-02-11 16:55:00,
2013-02-11 09:00:00,55.4,30.9,30.18,North,8,3.8,3.8,39,0.00,,CLR,0.00,VWS V14.01,2013-02-11 17:00:00,
2013-02-11 09:05:00,56.4,35.9,30.18,South,188,0.0,11.4,46,0.00,,CLR,0.00,VWS V14.01,2013-02-11 17:05:00,
2013-02-11 09:10:00,54.9,35.1,30.18,West,276,3.8,11.4,47,0.00,,CLR,0.00,VWS V14.01,2013-02-11 17:10:00,
2013-02-11 09:15:00,54.0,34.8,30.18,WNW,285,1.9,11.4,48,0.00,,CLR,0.00,VWS V14.01,2013-02-11 17:15:00,
2013-02-11 09:20:00,53.4,35.2,30.19,West,271,1.9,11.4,50,0.00,,CLR,0.00,VWS V14.01,2013-02-11 17:20:00,
2013-02-11 09:25:00,53.2,35.1,30.19,West,269,0.0,11.4,50,0.00,,CLR,0.00,VWS V14.01,2013-02-11 17:25:00,
2013-02-11 09:30:00,53.3,35.7,30.19,WNW,284,0.0,1.9,51,0.00,,CLR,0.00,VWS V14.01,2013-02-11 17:30:00,
2013-02-11 09:35:00,53.5,35.8,30.19,West,281,0.0,7.6,51,0.00,,CLR,0.00,VWS V14.01,2013-02-11 17:35:00,
2013-02-11 09:40:00,53.8,36.6,30.20,WNW,286,1.9,7.6,52,0.00,,CLR,0.00,VWS V14.01,2013-02-11 17:40:00,
2013-02-11 09:45:00,54.6,35.8,30.20,East,101,0.0,7.6,49,0.00,,CLR,0.00,VWS V14.01,2013-02-11 17:45:00,
2013-02-11 09:50:00,55.5,35.6,30.19,SSW,200,3.8,7.6,47,0.00,,CLR,0.00,VWS V14.01,2013-02-11 17:50:00,
2013-02-11 09:55:00,55.9,36.0,30.20,West,271,5.7,7.6,47,0.00,,CLR,0.00,VWS V14.01,2013-02-11 17:55:00,
2013-02-11 10:00:00,55.0,35.7,30.20,West,269,3.8,5.7,48,0.00,,CLR,0.00,VWS V14.01,2013-02-11 18:00:00,
2013-02-11 10:05:00,55.2,37.4,30.20,NW,304,1.9,7.6,51,0.00,,CLR,0.00,VWS V14.01,2013-02-11 18:05:00,
2013-02-11 10:10:00,55.6,37.3,30.20,West,270,1.9,7.6,50,0.00,,CLR,0.00,VWS V14.01,2013-02-11 18:10:00,
2013-02-11 10:15:00,56.1,37.2,30.20,West,277,1.9,7.6,49,0.00,,CLR,0.00,VWS V14.01,2013-02-11 18:15:00,
2013-02-11 10:20:00,56.7,37.8,30.20,North,1,0.0,7.6,49,0.00,,CLR,0.00,VWS V14.01,2013-02-11 18:20:00,
2013-02-11 10:25:00,57.3,37.3,30.20,West,262,3.8,7.6,47,0.00,,CLR,0.00,VWS V14.01,2013-02-11 18:25:00,
2013-02-11 10:30:00,57.7,37.6,30.20,SW,214,1.9,5.7,47,0.00,,CLR,0.00,VWS V14.01,2013-02-11 18:30:00,
2013-02-11 10:35:00,58.4,38.8,30.20,SSW,204,3.8,5.7,48,0.00,,CLR,0.00,VWS V14.01,2013-02-11 18:35:00,
2013-02-11 10:41:00,59.0,37.7,30.20,SW,232,1.9,9.5,45,0.00,,CLR,0.00,VWS V14.01,2013-02-11 18:41:00,
2013-02-11 10:46:00,59.7,38.3,30.20,SW,216,0.0,9.5,45,0.00,,CLR,0.00,VWS V14.01,2013-02-11 18:46:00,
2013-02-11 10:51:00,60.3,37.7,30.20,SSW,207,1.9,9.5,43,0.00,,CLR,0.00,VWS V14.01,2013-02-11 18:51:00,
2013-02-11 10:56:00,60.8,37.0,30.20,SW,221,1.9,9.5,41,0.00,,CLR,0.00,VWS V14.01,2013-02-11 18:56:00,
2013-02-11 11:01:00,61.6,37.7,30.19,East,94,0.0,3.8,41,0.00,,CLR,0.00,VWS V14.01,2013-02-11 19:01:00,
2013-02-11 11:06:00,62.4,37.1,30.19,SSW,210,1.9,3.8,39,0.00,,CLR,0.00,VWS V14.01,2013-02-11 19:06:00,
2013-02-11 11:11:00,62.9,34.8,30.19,West,279,0.0,5.7,35,0.00,,CLR,0.00,VWS V14.01,2013-02-11 19:11:00,
2013-02-11 11:16:00,63.3,36.6,30.19,SW,231,1.9,5.7,37,0.00,,CLR,0.00,VWS V14.01,2013-02-11 19:16:00,
2013-02-11 11:21:00,63.9,35.0,30.19,SSW,211,3.8,7.6,34,0.00,,CLR,0.00,VWS V14.01,2013-02-11 19:21:00,
2013-02-11 11:26:00,63.9,35.0,30.18,South,172,3.8,7.6,34,0.00,,CLR,0.00,VWS V14.01,2013-02-11 19:26:00,
2013-02-11 11:31:00,64.0,33.6,30.18,SSW,203,1.9,5.7,32,0.00,,CLR,0.00,VWS V14.01,2013-02-11 19:31:00,
2013-02-11 11:36:00,64.4,34.7,30.18,West,267,1.9,5.7,33,0.00,,CLR,0.00,VWS V14.01,2013-02-11 19:36:00,
2013-02-11 11:41:00,64.7,33.4,30.18,SW,229,3.8,11.4,31,0.00,,CLR,0.00,VWS V14.01,2013-02-11 19:41:00,
2013-02-11 11:46:00,64.8,33.5,30.18,WNW,294,3.8,11.4,31,0.00,,CLR,0.00,VWS V14.01,2013-02-11 19:46:00,
2013-02-11 11:51:00,65.0,33.7,30.17,WSW,243,1.9,11.4,31,0.00,,CLR,0.00,VWS V14.01,2013-02-11 19:51:00,
2013-02-11 11:56:00,65.3,33.1,30.17,WNW,297,7.6,11.4,30,0.00,,CLR,0.00,VWS V14.01,2013-02-11 19:56:00,
2013-02-11 12:01:00,65.5,30.7,30.17,West,269,5.7,9.5,27,0.00,,CLR,0.00,VWS V14.01,2013-02-11 20:01:00,
2013-02-11 12:06:00,65.7,30.8,30.17,WSW,245,1.9,11.4,27,0.00,,CLR,0.00,VWS V14.01,2013-02-11 20:06:00,
2013-02-11 12:11:00,65.8,30.9,30.16,WSW,246,3.8,11.4,27,0.00,,CLR,0.00,VWS V14.01,2013-02-11 20:11:00,
2013-02-11 12:16:00,65.7,30.8,30.16,West,262,3.8,11.4,27,0.00,,CLR,0.00,VWS V14.01,2013-02-11 20:16:00,
2013-02-11 12:21:00,65.7,30.8,30.16,West,277,7.6,13.3,27,0.00,,CLR,0.00,VWS V14.01,2013-02-11 20:21:00,
2013-02-11 12:26:00,65.6,30.8,30.16,West,264,9.5,13.3,27,0.00,,CLR,0.00,VWS V14.01,2013-02-11 20:26:00,
2013-02-11 12:32:00,65.8,30.9,30.16,West,259,1.9,7.6,27,0.00,,CLR,0.00,VWS V14.01,2013-02-11 20:32:00,
2013-02-11 12:37:00,65.9,31.0,30.16,WSW,253,1.9,11.4,27,0.00,,CLR,0.00,VWS V14.01,2013-02-11 20:37:00,
2013-02-11 12:42:00,66.5,30.6,30.15,West,259,5.7,11.4,26,0.00,,CLR,0.00,VWS V14.01,2013-02-11 20:42:00,
2013-02-11 12:47:00,66.8,30.8,30.15,WSW,257,5.7,13.3,26,0.00,,CLR,0.00,VWS V14.01,2013-02-11 20:47:00,
2013-02-11 12:52:00,66.9,30.0,30.15,West,262,7.6,13.3,25,0.00,,CLR,0.00,VWS V14.01,2013-02-11 20:52:00,
2013-02-11 12:57:00,67.0,31.0,30.15,WSW,250,3.8,13.3,26,0.00,,CLR,0.00,VWS V14.01,2013-02-11 20:57:00,
2013-02-11 13:02:00,66.8,29.9,30.15,WNW,291,3.8,9.5,25,0.00,,CLR,0.00,VWS V14.01,2013-02-11 21:02:00,
2013-02-11 13:07:00,67.1,31.1,30.14,WSW,257,1.9,9.5,26,0.00,,CLR,0.00,VWS V14.01,2013-02-11 21:07:00,
2013-02-11 13:12:00,67.3,29.3,30.14,West,273,13.3,13.3,24,0.00,,CLR,0.00,VWS V14.01,2013-02-11 21:12:00,
2013-02-11 13:17:00,67.0,30.0,30.14,WNW,283,7.6,13.3,25,0.00,,CLR,0.00,VWS V14.01,2013-02-11 21:17:00,
2013-02-11 13:22:00,67.0,30.0,30.14,WNW,285,1.9,13.3,25,0.00,,CLR,0.00,VWS V14.01,2013-02-11 21:22:00,
2013-02-11 13:27:00,67.2,30.2,30.14,WSW,245,11.4,13.3,25,0.00,,CLR,0.00,VWS V14.01,2013-02-11 21:27:00,
2013-02-11 13:32:00,67.4,31.4,30.14,East,82,1.9,11.4,26,0.00,,CLR,0.00,VWS V14.01,2013-02-11 21:32:00,
2013-02-11 13:37:00,67.8,31.7,30.14,West,262,5.7,11.4,26,0.00,,CLR,0.00,VWS V14.01,2013-02-11 21:37:00,
2013-02-11 13:42:00,67.5,31.4,30.13,WSW,257,5.7,17.1,26,0.00,,CLR,0.00,VWS V14.01,2013-02-11 21:42:00,
2013-02-11 13:47:00,67.8,30.7,30.13,WNW,293,5.7,17.1,25,0.00,,CLR,0.00,VWS V14.01,2013-02-11 21:47:00,
2013-02-11 13:52:00,68.0,30.9,30.13,West,267,3.8,17.1,25,0.00,,CLR,0.00,VWS V14.01,2013-02-11 21:52:00,
2013-02-11 13:57:00,68.2,31.1,30.13,NW,308,7.6,17.1,25,0.00,,CLR,0.00,VWS V14.01,2013-02-11 21:57:00,
2013-02-11 14:03:00,68.4,32.2,30.13,WSW,242,1.9,11.4,26,0.00,,CLR,0.00,VWS V14.01,2013-02-11 22:03:00,
2013-02-11 14:08:00,68.5,33.2,30.13,SSE,148,3.8,11.4,27,0.00,,CLR,0.00,VWS V14.01,2013-02-11 22:08:00,
2013-02-11 14:13:00,68.7,34.3,30.13,WNW,295,5.7,11.4,28,0.00,,CLR,0.00,VWS V14.01,2013-02-11 22:13:00,
2013-02-11 14:18:00,68.4,34.0,30.13,SW,221,1.9,13.3,28,0.00,,CLR,0.00,VWS V14.01,2013-02-11 22:18:00,
2013-02-11 14:23:00,68.2,33.0,30.13,West,264,3.8,17.1,27,0.00,,CLR,0.00,VWS V14.01,2013-02-11 22:23:00,
2013-02-11 14:28:00,68.2,33.9,30.13,SSW,209,13.3,17.1,28,0.00,,CLR,0.00,VWS V14.01,2013-02-11 22:28:00,
2013-02-11 14:33:00,68.0,33.7,30.13,WSW,248,3.8,11.4,28,0.00,,CLR,0.00,VWS V14.01,2013-02-11 22:33:00,
2013-02-11 14:38:00,68.1,34.7,30.13,SW,233,0.0,11.4,29,0.00,,CLR,0.00,VWS V14.01,2013-02-11 22:38:00,
2013-02-11 14:43:00,68.2,36.4,30.13,West,259,7.6,13.3,31,0.00,,CLR,0.00,VWS V14.01,2013-02-11 22:43:00,
2013-02-11 14:48:00,67.7,36.0,30.13,WSW,243,3.8,13.3,31,0.00,,CLR,0.00,VWS V14.01,2013-02-11 22:48:00,
2013-02-11 14:53:00,67.1,36.3,30.13,SW,227,3.8,15.2,32,0.00,,CLR,0.00,VWS V14.01,2013-02-11 22:53:00,
2013-02-11 14:58:00,66.6,36.6,30.13,SSW,200,1.9,19.0,33,0.00,,CLR,0.00,VWS V14.01,2013-02-11 22:58:00,
2013-02-11 15:03:00,66.2,35.5,30.13,West,270,7.6,13.3,32,0.00,,CLR,0.00,VWS V14.01,2013-02-11 23:03:00,
2013-02-11 15:08:00,65.8,36.7,30.13,SSW,200,9.5,13.3,34,0.00,,CLR,0.00,VWS V14.01,2013-02-11 23:08:00,
2013-02-11 15:13:00,65.5,36.4,30.13,WNW,290,5.7,15.2,34,0.00,,CLR,0.00,VWS V14.01,2013-02-11 23:13:00,
2013-02-11 15:18:00,65.0,36.0,30.13,SSW,203,7.6,15.2,34,0.00,,CLR,0.00,VWS V14.01,2013-02-11 23:18:00,
2013-02-11 15:23:00,64.5,35.5,30.13,SW,221,1.9,15.2,34,0.00,,CLR,0.00,VWS V14.01,2013-02-11 23:23:00,
2013-02-11 15:29:00,64.2,35.3,30.13,West,273,3.8,15.2,34,0.00,,CLR,0.00,VWS V14.01,2013-02-11 23:29:00,
2013-02-11 15:34:00,64.1,38.7,30.13,South,191,1.9,9.5,39,0.00,,CLR,0.00,VWS V14.01,2013-02-11 23:34:00,
2013-02-11 15:39:00,63.5,38.8,30.14,SSW,193,5.7,13.3,40,0.00,,CLR,0.00,VWS V14.01,2013-02-11 23:39:00,
2013-02-11 15:44:00,63.2,39.1,30.13,SW,214,1.9,13.3,41,0.00,,CLR,0.00,VWS V14.01,2013-02-11 23:44:00,
2013-02-11 15:49:00,63.0,39.6,30.14,SSW,207,3.8,15.2,42,0.00,,CLR,0.00,VWS V14.01,2013-02-11 23:49:00,
2013-02-11 15:54:00,62.6,39.8,30.14,WSW,238,1.9,15.2,43,0.00,,CLR,0.00,VWS V14.01,2013-02-11 23:54:00,
2013-02-11 15:59:00,62.1,39.4,30.14,ENE,68,1.9,15.2,43,0.00,,CLR,0.00,VWS V14.01,2013-02-11 23:59:00,
2013-02-11 16:04:00,61.9,39.8,30.14,SW,215,3.8,17.1,44,0.00,,CLR,0.00,VWS V14.01,2013-02-12 00:04:00,
2013-02-11 16:09:00,61.7,39.0,30.14,South,191,5.7,17.1,43,0.00,,CLR,0.00,VWS V14.01,2013-02-12 00:09:00,
2013-02-11 16:14:00,61.4,38.7,30.14,SSW,208,7.6,17.1,43,0.00,,CLR,0.00,VWS V14.01,2013-02-12 00:14:00,
2013-02-11 16:19:00,61.2,39.1,30.15,SSW,193,11.4,17.1,44,0.00,,CLR,0.00,VWS V14.01,2013-02-12 00:19:00,
2013-02-11 16:24:00,61.1,39.6,30.14,SSW,205,5.7,17.1,45,0.00,,CLR,0.00,VWS V14.01,2013-02-12 00:24:00,
2013-02-11 16:29:00,60.8,39.3,30.15,SSW,199,7.6,17.1,45,0.00,,CLR,0.00,VWS V14.01,2013-02-12 00:29:00,
2013-02-11 16:34:00,60.4,39.5,30.15,South,169,1.9,9.5,46,0.00,,CLR,0.00,VWS V14.01,2013-02-12 00:34:00,
2013-02-11 16:39:00,60.0,38.6,30.15,SW,226,7.6,9.5,45,0.00,,CLR,0.00,VWS V14.01,2013-02-12 00:39:00,
2013-02-11 16:44:00,59.5,38.7,30.15,WSW,246,9.5,9.5,46,0.00,,CLR,0.00,VWS V14.01,2013-02-12 00:44:00,
2013-02-11 16:50:00,59.0,37.7,30.15,SW,235,1.9,15.2,45,0.00,,CLR,0.00,VWS V14.01,2013-02-12 00:50:00,
2013-02-11 16:55:00,58.6,37.9,30.15,SW,233,1.9,15.2,46,0.00,,CLR,0.00,VWS V14.01,2013-02-12 00:55:00,
2013-02-11 17:00:00,58.4,38.3,30.15,SSW,203,1.9,1.9,47,0.00,,CLR,0.00,VWS V14.01,2013-02-12 01:00:00,
2013-02-11 17:05:00,58.1,38.5,30.15,SW,217,1.9,11.4,48,0.00,,CLR,0.00,VWS V14.01,2013-02-12 01:05:00,
2013-02-11 17:10:00,57.7,38.7,30.15,WSW,242,0.0,11.4,49,0.00,,CLR,0.00,VWS V14.01,2013-02-12 01:10:00,
2013-02-11 17:15:00,57.3,38.3,30.15,South,189,5.7,11.4,49,0.00,,CLR,0.00,VWS V14.01,2013-02-12 01:15:00,
2013-02-11 17:20:00,56.9,38.5,30.15,SW,224,3.8,11.4,50,0.00,,CLR,0.00,VWS V14.01,2013-02-12 01:20:00,
2013-02-11 17:25:00,56.6,38.2,30.15,SSW,210,1.9,11.4,50,0.00,,CLR,0.00,VWS V14.01,2013-02-12 01:25:00,
2013-02-11 17:30:00,56.4,38.0,30.16,SW,228,0.0,0.0,50,0.00,,CLR,0.00,VWS V14.01,2013-02-12 01:30:00,
2013-02-11 17:35:00,56.1,38.2,30.15,SW,222,0.0,1.9,51,0.00,,CLR,0.00,VWS V14.01,2013-02-12 01:35:00,
2013-02-11 17:40:00,55.5,37.7,30.16,SW,224,0.0,1.9,51,0.00,,CLR,0.00,VWS V14.01,2013-02-12 01:40:00,
2013-02-11 17:45:00,55.2,38.4,30.16,SSW,201,0.0,9.5,53,0.00,,CLR,0.00,VWS V14.01,2013-02-12 01:45:00,
2013-02-11 17:50:00,55.0,38.7,30.16,SSW,201,0.0,9.5,54,0.00,,CLR,0.00,VWS V14.01,2013-02-12 01:50:00,
2013-02-11 17:55:00,54.5,38.2,30.17,SSW,201,0.0,9.5,54,0.00,,CLR,0.00,VWS V14.01,2013-02-12 01:55:00,
2013-02-11 18:01:00,53.9,38.1,30.17,East,101,0.0,3.8,55,0.00,,CLR,0.00,VWS V14.01,2013-02-12 02:01:00,
2013-02-11 18:06:00,53.7,38.8,30.17,ESE,114,0.0,3.8,57,0.00,,CLR,0.00,VWS V14.01,2013-02-12 02:06:00,
2013-02-11 18:11:00,53.5,38.7,30.17,SSE,156,0.0,3.8,57,0.00,,CLR,0.00,VWS V14.01,2013-02-12 02:11:00,
2013-02-11 18:16:00,53.2,38.8,30.17,SSW,198,0.0,3.8,58,0.00,,CLR,0.00,VWS V14.01,2013-02-12 02:16:00,
2013-02-11 18:21:00,53.0,39.1,30.17,ESE,122,1.9,3.8,59,0.00,,CLR,0.00,VWS V14.01,2013-02-12 02:21:00,
2013-02-11 18:26:00,53.0,39.5,30.17,ESE,117,3.8,5.7,60,0.00,,CLR,0.00,VWS V14.01,2013-02-12 02:26:00,
2013-02-11 18:31:00,52.9,39.4,30.17,SE,125,1.9,3.8,60,0.00,,CLR,0.00,VWS V14.01,2013-02-12 02:31:00,
2013-02-11 18:36:00,52.7,39.2,30.17,ESE,122,0.0,5.7,60,0.00,,CLR,0.00,VWS V14.01,2013-02-12 02:36:00,
2013-02-11 18:41:00,52.4,39.4,30.17,ESE,117,0.0,5.7,61,0.00,,CLR,0.00,VWS V14.01,2013-02-12 02:41:00,
2013-02-11 18:46:00,52.2,39.2,30.17,ESE,117,0.0,5.7,61,0.00,,CLR,0.00,VWS V14.01,2013-02-12 02:46:00,
2013-02-11 18:51:00,51.7,39.1,30.18,ESE,117,0.0,5.7,62,0.00,,CLR,0.00,VWS V14.01,2013-02-12 02:51:00,
2013-02-11 18:56:00,51.0,38.9,30.17,ESE,117,0.0,5.7,63,0.00,,CLR,0.00,VWS V14.01,2013-02-12 02:56:00,
2013-02-11 19:01:00,50.3,39.0,30.18,ESE,120,0.0,3.8,65,0.00,,CLR,0.00,VWS V14.01,2013-02-12 03:01:00,
2013-02-11 19:06:00,50.2,39.3,30.17,ESE,122,0.0,3.8,66,0.00,,CLR,0.00,VWS V14.01,2013-02-12 03:06:00,
2013-02-11 19:11:00,50.0,39.1,30.18,ESE,121,0.0,3.8,66,0.00,,CLR,0.00,VWS V14.01,2013-02-12 03:11:00,
2013-02-11 19:16:00,49.7,39.2,30.18,ESE,121,0.0,3.8,67,0.00,,CLR,0.00,VWS V14.01,2013-02-12 03:16:00,
2013-02-11 19:21:00,49.2,38.7,30.18,ESE,121,0.0,3.8,67,0.00,,CLR,0.00,VWS V14.01,2013-02-12 03:21:00,
2013-02-11 19:26:00,48.6,38.5,30.18,ESE,122,0.0,3.8,68,0.00,,CLR,0.00,VWS V14.01,2013-02-12 03:26:00,
2013-02-11 19:31:00,48.1,38.8,30.18,ESE,122,0.0,0.0,70,0.00,,CLR,0.00,VWS V14.01,2013-02-12 03:31:00,
2013-02-11 19:36:00,47.6,38.7,30.18,ESE,121,0.0,0.0,71,0.00,,CLR,0.00,VWS V14.01,2013-02-12 03:36:00,
2013-02-11 19:41:00,47.2,38.7,30.18,ESE,122,0.0,0.0,72,0.00,,CLR,0.00,VWS V14.01,2013-02-12 03:41:00,
2013-02-11 19:46:00,46.6,38.8,30.18,ESE,121,0.0,0.0,74,0.00,,CLR,0.00,VWS V14.01,2013-02-12 03:46:00,
2013-02-11 19:51:00,46.4,39.6,30.18,ESE,121,0.0,0.0,77,0.00,,CLR,0.00,VWS V14.01,2013-02-12 03:51:00,
2013-02-11 19:57:00,46.2,39.1,30.19,ESE,122,0.0,0.0,76,0.00,,CLR,0.00,VWS V14.01,2013-02-12 03:57:00,
2013-02-11 20:02:00,45.9,39.1,30.19,ESE,121,0.0,0.0,77,0.00,,CLR,0.00,VWS V14.01,2013-02-12 04:02:00,
2013-02-11 20:07:00,45.5,38.7,30.19,ESE,121,0.0,0.0,77,0.00,,CLR,0.00,VWS V14.01,2013-02-12 04:07:00,
2013-02-11 20:12:00,45.0,38.6,30.19,ESE,121,0.0,0.0,78,0.00,,CLR,0.00,VWS V14.01,2013-02-12 04:12:00,
2013-02-11 20:17:00,44.6,38.5,30.19,ESE,121,0.0,0.0,79,0.00,,CLR,0.00,VWS V14.01,2013-02-12 04:17:00,
2013-02-11 20:22:00,44.3,38.5,30.19,ESE,121,0.0,0.0,80,0.00,,CLR,0.00,VWS V14.01,2013-02-12 04:22:00,
2013-02-11 20:27:00,43.9,38.1,30.19,ESE,121,0.0,0.0,80,0.00,,CLR,0.00,VWS V14.01,2013-02-12 04:27:00,
2013-02-11 20:32:00,43.7,38.3,30.19,ESE,122,0.0,0.0,81,0.00,,CLR,0.00,VWS V14.01,2013-02-12 04:32:00,
2013-02-11 20:37:00,44.0,37.6,30.20,ESE,121,0.0,1.9,78,0.00,,CLR,0.00,VWS V14.01,2013-02-12 04:37:00,
2013-02-11 20:42:00,44.5,37.8,30.20,ESE,121,0.0,1.9,77,0.00,,CLR,0.00,VWS V14.01,2013-02-12 04:42:00,
2013-02-11 20:47:00,44.3,37.6,30.20,ESE,122,0.0,1.9,77,0.00,,CLR,0.00,VWS V14.01,2013-02-12 04:47:00,
2013-02-11 20:52:00,43.9,37.2,30.20,ESE,122,0.0,1.9,77,0.00,,CLR,0.00,VWS V14.01,2013-02-12 04:52:00,
2013-02-11 20:57:00,43.7,37.3,30.20,SE,136,0.0,1.9,78,0.00,,CLR,0.00,VWS V14.01,2013-02-12 04:57:00,
2013-02-11 21:00:00,43.4,37.0,30.21,SE,136,0.0,1.9,78,0.00,,CLR,0.00,VWS V14.01,2013-02-12 05:00:00,
2013-02-11 21:01:00,43.3,36.9,30.21,SE,134,0.0,0.0,78,0.00,,CLR,0.00,VWS V14.01,2013-02-12 05:01:00,
2013-02-11 21:02:00,43.3,36.9,30.20,SE,134,0.0,0.0,78,0.00,,CLR,0.00,VWS V14.01,2013-02-12 05:02:00,
2013-02-11 21:03:00,43.3,36.9,30.21,SE,134,0.0,0.0,78,0.00,,CLR,0.00,VWS V14.01,2013-02-12 05:03:00,
2013-02-11 21:08:00,43.1,36.7,30.21,SE,134,0.0,0.0,78,0.00,,CLR,0.00,VWS V14.01,2013-02-12 05:08:00,
2013-02-11 21:13:00,43.0,36.9,30.21,SE,134,1.9,1.9,79,0.00,,CLR,0.00,VWS V14.01,2013-02-12 05:13:00,
2013-02-11 21:18:00,43.1,37.0,30.21,ESE,122,0.0,1.9,79,0.00,,CLR,0.00,VWS V14.01,2013-02-12 05:18:00,
2013-02-11 21:23:00,42.8,36.8,30.21,ESE,121,0.0,1.9,79,0.00,,CLR,0.00,VWS V14.01,2013-02-12 05:23:00,
2013-02-11 21:28:00,42.5,36.8,30.21,ESE,122,0.0,1.9,80,0.00,,CLR,0.00,VWS V14.01,2013-02-12 05:28:00,
2013-02-11 21:33:00,42.4,36.7,30.21,ESE,121,0.0,1.9,80,0.00,,CLR,0.00,VWS V14.01,2013-02-12 05:33:00,
2013-02-11 21:38:00,42.4,36.7,30.21,ESE,120,0.0,1.9,80,0.00,,CLR,0.00,VWS V14.01,2013-02-12 05:38:00,
2013-02-11 21:43:00,42.3,36.3,30.21,ESE,113,3.8,3.8,79,0.00,,CLR,0.00,VWS V14.01,2013-02-12 05:43:00,
2013-02-11 21:48:00,42.1,36.4,30.21,ESE,122,0.0,3.8,80,0.00,,CLR,0.00,VWS V14.01,2013-02-12 05:48:00,
2013-02-11 21:53:00,41.9,36.2,30.21,ESE,121,0.0,3.8,80,0.00,,CLR,0.00,VWS V14.01,2013-02-12 05:53:00,
2013-02-11 21:58:00,41.7,36.0,30.22,ESE,122,0.0,3.8,80,0.00,,CLR,0.00,VWS V14.01,2013-02-12 05:58:00,
2013-02-11 22:03:00,41.6,35.9,30.22,ESE,121,0.0,0.0,80,0.00,,CLR,0.00,VWS V14.01,2013-02-12 06:03:00,
2013-02-11 22:08:00,41.2,35.8,30.22,ESE,122,0.0,0.0,81,0.00,,CLR,0.00,VWS V14.01,2013-02-12 06:08:00,
2013-02-11 22:13:00,40.9,35.8,30.22,ESE,121,0.0,1.9,82,0.00,,CLR,0.00,VWS V14.01,2013-02-12 06:13:00,
2013-02-11 22:18:00,41.0,36.2,30.22,ESE,121,0.0,1.9,83,0.00,,CLR,0.00,VWS V14.01,2013-02-12 06:18:00,
2013-02-11 22:23:00,41.1,36.0,30.21,ESE,121,0.0,1.9,82,0.00,,CLR,0.00,VWS V14.01,2013-02-12 06:23:00,
2013-02-11 22:28:00,41.1,36.0,30.22,ESE,108,1.9,3.8,82,0.00,,CLR,0.00,VWS V14.01,2013-02-12 06:28:00,
2013-02-11 22:33:00,41.1,35.7,30.22,ESE,115,1.9,1.9,81,0.00,,CLR,0.00,VWS V14.01,2013-02-12 06:33:00,
2013-02-11 22:39:00,40.9,35.5,30.22,ESE,115,0.0,1.9,81,0.00,,CLR,0.00,VWS V14.01,2013-02-12 06:39:00,
2013-02-11 22:44:00,40.7,35.3,30.22,ESE,115,0.0,1.9,81,0.00,,CLR,0.00,VWS V14.01,2013-02-12 06:44:00,
2013-02-11 22:49:00,40.5,35.8,30.22,ESE,115,0.0,1.9,83,0.00,,CLR,0.00,VWS V14.01,2013-02-12 06:49:00,
2013-02-11 22:54:00,40.4,35.7,30.22,ESE,116,0.0,1.9,83,0.00,,CLR,0.00,VWS V14.01,2013-02-12 06:54:00,
2013-02-11 22:59:00,40.3,35.6,30.22,ESE,115,0.0,1.9,83,0.00,,CLR,0.00,VWS V14.01,2013-02-12 06:59:00,
2013-02-11 23:04:00,39.9,34.9,30.22,ESE,115,0.0,0.0,82,0.00,,,0.00,VWS V14.01,2013-02-12 07:04:00,
2013-02-11 23:09:00,39.6,35.2,30.23,ESE,116,0.0,0.0,84,0.00,,,0.00,VWS V14.01,2013-02-12 07:09:00,
2013-02-11 23:14:00,39.3,34.9,30.23,ESE,116,0.0,0.0,84,0.00,,,0.00,VWS V14.01,2013-02-12 07:14:00,
2013-02-11 23:19:00,38.9,34.5,30.23,ESE,115,0.0,0.0,84,0.00,,,0.00,VWS V14.01,2013-02-12 07:19:00,
2013-02-11 23:24:00,38.5,34.4,30.23,ESE,116,0.0,0.0,85,0.00,,,0.00,VWS V14.01,2013-02-12 07:24:00,
2013-02-11 23:29:00,38.5,34.7,30.23,ESE,115,0.0,1.9,86,0.00,,,0.00,VWS V14.01,2013-02-12 07:29:00,
2013-02-11 23:34:00,38.5,34.7,30.23,ESE,115,1.9,1.9,86,0.00,,,0.00,VWS V14.01,2013-02-12 07:34:00,
2013-02-11 23:39:00,38.6,35.1,30.23,ESE,115,0.0,1.9,87,0.00,,,0.00,VWS V14.01,2013-02-12 07:39:00,
2013-02-11 23:44:00,38.6,34.8,30.23,ESE,116,0.0,1.9,86,0.00,,,0.00,VWS V14.01,2013-02-12 07:44:00,
2013-02-11 23:49:00,38.5,34.7,30.24,ESE,115,0.0,1.9,86,0.00,,,0.00,VWS V14.01,2013-02-12 07:49:00,
2013-02-11 23:54:00,38.4,34.6,30.24,ESE,116,0.0,1.9,86,0.00,,,0.00,VWS V14.01,2013-02-12 07:54:00,
2013-02-11 23:59:00,38.1,34.3,30.24,ESE,115,0.0,1.9,86,0.00,,,0.00,VWS V14.01,2013-02-12 07:59:00,